Time;durP1;ratioP1;P1;durP2;ratioP2;P2;SDS_P1;SDS_P2;PMS_P1;PMS_P2;Temp;Humidity;BMP_temperature;BMP_pressure;BME280_temperature;BME280_humidity;BME280_pressure;Samples;Min_cycle;Max_cycle;Signal;HPM_P1;HPM_P2
2021/01/24 00:00:02;;;;;;;0.85;0.55;;;3.20;99.90;;;;;;5070572;28;20530;-59
2021/01/24 00:02:28;;;;;;;1.10;0.60;;;3.30;99.90;;;;;;5070912;28;20415;-58
2021/01/24 00:04:54;;;;;;;0.90;0.60;;;3.40;99.90;;;;;;5070135;28;20454;-58
2021/01/24 00:07:21;;;;;;;0.80;0.50;;;3.30;99.90;;;;;;5069086;28;20734;-59
2021/01/24 00:09:47;;;;;;;1.00;0.50;;;3.30;99.90;;;;;;5068987;28;20426;-58
2021/01/24 00:12:14;;;;;;;0.90;0.50;;;3.30;99.90;;;;;;5070669;28;20428;-59
2021/01/24 00:14:41;;;;;;;0.77;0.50;;;3.30;99.90;;;;;;5073026;28;20553;-58
2021/01/24 00:17:07;;;;;;;0.88;0.50;;;3.30;99.90;;;;;;5073327;28;20477;-59
2021/01/24 00:19:33;;;;;;;1.10;0.40;;;3.30;99.90;;;;;;5073660;28;20431;-58
2021/01/24 00:22:00;;;;;;;0.90;0.50;;;3.20;99.90;;;;;;5071340;28;20902;-58
2021/01/24 00:24:26;;;;;;;1.23;0.63;;;3.30;99.90;;;;;;5070085;28;20455;-58
2021/01/24 00:26:53;;;;;;;0.80;0.40;;;3.40;99.90;;;;;;5071739;28;20508;-58
2021/01/24 00:29:20;;;;;;;0.80;0.50;;;3.30;99.90;;;;;;5071020;28;20450;-59
2021/01/24 00:31:46;;;;;;;0.70;0.40;;;3.30;99.90;;;;;;5072935;28;20569;-59
2021/01/24 00:34:13;;;;;;;1.05;0.40;;;3.40;99.90;;;;;;5072553;28;20418;-59
2021/01/24 00:36:39;;;;;;;0.70;0.40;;;3.40;99.90;;;;;;5072087;28;20691;-58
2021/01/24 00:39:06;;;;;;;0.63;0.30;;;3.40;99.90;;;;;;5072743;28;20420;-58
2021/01/24 00:41:33;;;;;;;0.70;0.40;;;3.40;99.90;;;;;;5072930;28;20647;-57
2021/01/24 00:43:59;;;;;;;0.63;0.40;;;3.30;99.90;;;;;;5072394;28;20458;-57
2021/01/24 00:46:27;;;;;;;0.50;0.30;;;3.30;99.90;;;;;;5073270;28;20847;-57
2021/01/24 00:48:53;;;;;;;0.50;0.40;;;3.40;99.90;;;;;;5073233;28;20455;-53
2021/01/24 00:51:20;;;;;;;0.70;0.35;;;3.40;99.90;;;;;;5073619;28;20429;-55
2021/01/24 00:53:46;;;;;;;0.60;0.30;;;3.30;99.90;;;;;;5072896;28;20735;-56
2021/01/24 00:56:12;;;;;;;0.70;0.38;;;3.20;99.90;;;;;;5073570;28;20427;-57
2021/01/24 00:58:39;;;;;;;0.77;0.35;;;3.20;99.90;;;;;;5073701;28;20427;-56
2021/01/24 01:01:05;;;;;;;0.70;0.40;;;3.20;99.90;;;;;;5073318;28;20526;-55
2021/01/24 01:03:32;;;;;;;0.60;0.40;;;3.10;99.90;;;;;;5073748;28;20426;-57
2021/01/24 01:05:58;;;;;;;0.70;0.40;;;3.20;99.90;;;;;;5073413;28;20465;-57
2021/01/24 01:08:25;;;;;;;0.70;0.40;;;3.10;99.90;;;;;;5073792;28;20419;-55
2021/01/24 01:10:51;;;;;;;0.60;0.40;;;3.10;99.90;;;;;;5073717;28;20914;-56
2021/01/24 01:13:18;;;;;;;0.50;0.30;;;3.10;99.90;;;;;;5075361;28;20435;-57
2021/01/24 01:15:44;;;;;;;0.60;0.30;;;3.10;99.90;;;;;;5074105;28;20423;-57
2021/01/24 01:18:10;;;;;;;0.63;0.30;;;3.00;99.90;;;;;;5073447;28;20934;-55
2021/01/24 01:20:37;;;;;;;0.50;0.30;;;3.10;99.90;;;;;;5074523;28;20465;-57
2021/01/24 01:23:04;;;;;;;0.60;0.30;;;3.10;99.90;;;;;;5073991;28;20560;-56
2021/01/24 01:25:30;;;;;;;0.40;0.30;;;3.20;99.90;;;;;;5073339;28;20534;-57
2021/01/24 01:27:57;;;;;;;0.60;0.30;;;3.30;99.90;;;;;;5074042;28;20519;-57
2021/01/24 01:30:24;;;;;;;0.40;0.30;;;3.30;99.90;;;;;;5074401;28;20431;-56
2021/01/24 01:32:50;;;;;;;0.50;0.30;;;3.20;99.90;;;;;;5073394;28;20431;-57
2021/01/24 01:35:17;;;;;;;0.50;0.30;;;3.20;99.90;;;;;;5073847;28;20431;-57
2021/01/24 01:37:44;;;;;;;0.40;0.20;;;3.20;99.90;;;;;;5072499;28;20419;-57
2021/01/24 01:40:11;;;;;;;0.67;0.30;;;3.10;99.90;;;;;;5073011;28;20847;-57
2021/01/24 01:42:37;;;;;;;0.50;0.30;;;3.10;99.90;;;;;;5072508;28;20411;-57
2021/01/24 01:45:05;;;;;;;0.52;0.30;;;3.10;99.90;;;;;;5072620;28;20435;-57
2021/01/24 01:47:31;;;;;;;0.80;0.40;;;3.00;99.90;;;;;;5071638;28;20419;-54
2021/01/24 01:49:59;;;;;;;0.50;0.30;;;3.00;99.90;;;;;;5071628;28;20427;-56
2021/01/24 01:52:26;;;;;;;0.70;0.40;;;3.00;99.90;;;;;;5071443;28;20514;-57
2021/01/24 01:54:54;;;;;;;0.60;0.40;;;3.00;99.90;;;;;;5073099;28;20466;-56
2021/01/24 01:57:21;;;;;;;0.70;0.40;;;3.00;99.90;;;;;;5072704;28;20511;-57
2021/01/24 01:59:47;;;;;;;0.65;0.40;;;3.10;99.90;;;;;;5071738;28;20839;-57
2021/01/24 02:02:25;;;;;;;0.70;0.30;;;3.00;99.90;;;;;;5072194;28;20499;-57
2021/01/24 02:04:58;;;;;;;0.55;0.40;;;3.10;99.90;;;;;;5072739;28;20501;-57
2021/01/24 02:07:30;;;;;;;0.60;0.40;;;3.10;99.90;;;;;;5073701;28;20423;-58
2021/01/24 02:10:04;;;;;;;0.50;0.30;;;3.10;99.90;;;;;;5074188;28;20428;-58
2021/01/24 02:12:39;;;;;;;0.63;0.30;;;3.10;99.90;;;;;;5073333;28;20423;-58
2021/01/24 02:15:08;;;;;;;0.50;0.30;;;3.10;99.90;;;;;;5072767;28;20420;-57
2021/01/24 02:17:39;;;;;;;0.50;0.30;;;3.10;99.90;;;;;;5071835;28;20419;-57
2021/01/24 02:20:12;;;;;;;0.40;0.20;;;3.30;99.90;;;;;;5072783;28;20894;-57
2021/01/24 02:22:40;;;;;;;0.50;0.20;;;3.30;99.90;;;;;;5072175;28;20423;-56
2021/01/24 02:25:16;;;;;;;0.33;0.20;;;3.40;99.90;;;;;;5072469;28;20576;-56
2021/01/24 02:27:48;;;;;;;0.40;0.15;;;3.30;99.90;;;;;;5072568;28;20419;-56
2021/01/24 02:30:27;;;;;;;0.30;0.10;;;3.40;99.90;;;;;;5074340;28;20431;-55
2021/01/24 02:32:59;;;;;;;0.40;0.20;;;3.50;99.90;;;;;;5072267;28;20511;-57
2021/01/24 02:35:28;;;;;;;0.30;0.10;;;3.50;99.90;;;;;;5071733;28;20485;-57
2021/01/24 02:37:57;;;;;;;0.30;0.10;;;3.50;99.90;;;;;;5071638;28;20447;-55
2021/01/24 02:40:24;;;;;;;0.30;0.10;;;3.50;99.90;;;;;;5071399;28;20521;-57
2021/01/24 02:42:51;;;;;;;0.30;0.10;;;3.50;99.90;;;;;;5071224;28;20429;-55
2021/01/24 02:45:18;;;;;;;0.30;0.10;;;3.50;99.90;;;;;;5071306;28;20926;-56
2021/01/24 02:47:47;;;;;;;0.30;0.10;;;3.50;99.90;;;;;;5071284;28;20432;-57
2021/01/24 02:50:14;;;;;;;0.30;0.10;;;3.50;99.90;;;;;;5072725;28;20427;-55
2021/01/24 02:52:41;;;;;;;0.30;0.10;;;3.40;99.90;;;;;;5072841;28;20794;-56
2021/01/24 02:55:09;;;;;;;0.40;0.10;;;3.30;99.90;;;;;;5072570;28;20423;-56
2021/01/24 02:57:37;;;;;;;0.30;0.10;;;3.30;99.90;;;;;;5073236;28;20707;-56
2021/01/24 03:00:06;;;;;;;0.30;0.10;;;3.30;99.90;;;;;;5073514;28;20430;-57
2021/01/24 03:02:33;;;;;;;0.30;0.10;;;3.40;99.90;;;;;;5072457;28;20430;-56
2021/01/24 03:05:00;;;;;;;0.30;0.10;;;3.40;99.90;;;;;;5073027;28;20439;-54
2021/01/24 03:07:28;;;;;;;0.30;0.20;;;3.40;99.90;;;;;;5072784;28;20420;-57
2021/01/24 03:09:55;;;;;;;0.30;0.10;;;3.40;99.90;;;;;;5073345;28;20535;-56
2021/01/24 03:12:23;;;;;;;0.40;0.10;;;3.30;99.90;;;;;;5075084;28;20430;-56
2021/01/24 03:14:50;;;;;;;0.30;0.10;;;3.30;99.90;;;;;;5075328;28;20839;-57
2021/01/24 03:17:18;;;;;;;0.50;0.20;;;3.20;99.90;;;;;;5076281;28;20423;-55
2021/01/24 03:19:45;;;;;;;0.40;0.20;;;3.30;99.90;;;;;;5075928;28;20622;-57
2021/01/24 03:22:14;;;;;;;0.30;0.20;;;3.40;99.90;;;;;;5075452;28;20420;-56
2021/01/24 03:24:42;;;;;;;0.88;0.28;;;3.40;99.90;;;;;;5075585;28;20436;-57
2021/01/24 03:27:09;;;;;;;0.40;0.20;;;3.50;99.90;;;;;;5074281;28;20443;-57
2021/01/24 03:29:36;;;;;;;0.40;0.20;;;3.60;99.90;;;;;;5077118;28;20427;-57
2021/01/24 03:32:03;;;;;;;0.40;0.20;;;3.40;99.90;;;;;;5076456;28;20419;-57
2021/01/24 03:34:29;;;;;;;0.50;0.20;;;3.40;99.90;;;;;;5076979;28;20536;-57
2021/01/24 03:36:58;;;;;;;0.40;0.20;;;3.30;99.90;;;;;;5075796;28;20419;-57
2021/01/24 03:39:25;;;;;;;0.50;0.30;;;3.10;99.90;;;;;;5076765;28;20428;-57
2021/01/24 03:41:52;;;;;;;0.52;0.30;;;3.00;99.90;;;;;;5076957;28;20424;-55
2021/01/24 03:44:18;;;;;;;0.60;0.30;;;3.00;99.90;;;;;;5074996;28;20442;-55
2021/01/24 03:46:45;;;;;;;0.50;0.30;;;2.90;99.90;;;;;;5076067;28;20427;-56
2021/01/24 03:49:11;;;;;;;0.60;0.30;;;2.80;99.90;;;;;;5076388;28;20790;-53
2021/01/24 03:51:37;;;;;;;0.57;0.30;;;2.80;99.90;;;;;;5076286;28;20546;-57
2021/01/24 03:54:04;;;;;;;0.57;0.30;;;2.80;99.90;;;;;;5076329;28;20430;-56
2021/01/24 03:56:31;;;;;;;0.50;0.30;;;2.80;99.90;;;;;;5076394;28;20507;-56
2021/01/24 03:58:57;;;;;;;0.50;0.30;;;2.80;99.90;;;;;;5076136;28;20419;-55
2021/01/24 04:01:24;;;;;;;1.00;0.40;;;2.80;99.90;;;;;;5075933;28;20446;-57
2021/01/24 04:03:50;;;;;;;0.60;0.30;;;2.70;99.90;;;;;;5075726;28;20492;-57
2021/01/24 04:06:16;;;;;;;0.60;0.30;;;2.80;99.90;;;;;;5074704;28;20442;-56
2021/01/24 04:08:42;;;;;;;0.80;0.40;;;2.80;99.90;;;;;;5074511;28;20423;-56
2021/01/24 04:11:09;;;;;;;0.60;0.35;;;2.90;99.90;;;;;;5074826;28;20429;-57
2021/01/24 04:13:36;;;;;;;0.70;0.40;;;3.10;99.90;;;;;;5075451;28;20427;-56
2021/01/24 04:16:02;;;;;;;0.70;0.40;;;3.00;99.90;;;;;;5075576;28;20420;-57
2021/01/24 04:18:29;;;;;;;0.90;0.40;;;3.00;99.90;;;;;;5075658;28;20427;-55
2021/01/24 04:20:55;;;;;;;1.30;0.40;;;2.90;99.90;;;;;;5075260;28;20484;-57
2021/01/24 04:23:21;;;;;;;0.70;0.30;;;3.00;99.90;;;;;;5074074;28;20481;-57
2021/01/24 04:25:48;;;;;;;0.80;0.40;;;2.70;99.90;;;;;;5076041;28;20471;-57
2021/01/24 04:28:14;;;;;;;0.83;0.40;;;2.60;99.90;;;;;;5076150;28;20869;-56
2021/01/24 04:30:41;;;;;;;0.70;0.30;;;2.70;99.90;;;;;;5076324;28;20484;-56
2021/01/24 04:33:07;;;;;;;0.60;0.30;;;2.70;99.90;;;;;;5075948;28;20426;-58
2021/01/24 04:35:34;;;;;;;0.70;0.40;;;2.60;99.90;;;;;;5076152;28;20424;-56
2021/01/24 04:38:01;;;;;;;0.80;0.30;;;2.60;99.90;;;;;;5075759;28;20422;-57
2021/01/24 04:40:27;;;;;;;0.50;0.30;;;2.60;99.90;;;;;;5074948;28;20484;-57
2021/01/24 04:42:54;;;;;;;0.70;0.30;;;2.60;99.90;;;;;;5075079;28;20768;-57
2021/01/24 04:45:21;;;;;;;0.50;0.30;;;2.60;99.90;;;;;;5075477;28;20431;-56
2021/01/24 04:47:49;;;;;;;0.93;0.38;;;2.60;99.90;;;;;;5074846;28;20419;-57
2021/01/24 04:50:18;;;;;;;0.60;0.40;;;2.50;99.90;;;;;;5075668;28;20518;-58
2021/01/24 04:52:45;;;;;;;0.50;0.30;;;2.40;99.90;;;;;;5075366;28;20478;-55
2021/01/24 04:55:13;;;;;;;1.10;0.30;;;2.30;99.90;;;;;;5075426;28;20427;-57
2021/01/24 04:57:41;;;;;;;1.50;0.30;;;2.30;99.90;;;;;;5075462;28;20430;-56
2021/01/24 05:00:08;;;;;;;0.50;0.30;;;2.40;99.90;;;;;;5075239;28;20427;-57
2021/01/24 05:02:35;;;;;;;1.00;0.30;;;2.50;99.90;;;;;;5074597;28;20419;-57
2021/01/24 05:05:04;;;;;;;0.70;0.40;;;2.50;99.90;;;;;;5074892;28;20436;-54
2021/01/24 05:07:31;;;;;;;0.65;0.30;;;2.40;99.90;;;;;;5074953;28;20827;-56
2021/01/24 05:09:57;;;;;;;0.50;0.30;;;2.40;99.90;;;;;;5075253;28;20475;-57
2021/01/24 05:12:24;;;;;;;1.00;0.30;;;2.40;99.90;;;;;;5073882;28;20478;-56
2021/01/24 05:14:51;;;;;;;0.50;0.30;;;2.50;99.90;;;;;;5074787;28;20457;-56
2021/01/24 05:17:17;;;;;;;0.60;0.30;;;2.60;99.90;;;;;;5073715;28;20522;-55
2021/01/24 05:19:45;;;;;;;0.77;0.38;;;2.50;99.90;;;;;;5071666;28;20431;-56
2021/01/24 05:22:12;;;;;;;0.60;0.30;;;2.50;99.90;;;;;;5073313;28;20769;-54
2021/01/24 05:24:38;;;;;;;0.60;0.30;;;2.50;99.90;;;;;;5073556;28;20953;-56
2021/01/24 05:27:09;;;;;;;0.70;0.30;;;2.50;99.90;;;;;;5073675;28;20823;-56
2021/01/24 05:29:37;;;;;;;0.60;0.30;;;2.30;99.90;;;;;;5073224;28;20430;-56
2021/01/24 05:32:05;;;;;;;0.65;0.30;;;2.20;99.90;;;;;;5073461;28;20419;-55
2021/01/24 05:34:32;;;;;;;0.60;0.40;;;2.20;99.90;;;;;;5073226;28;20423;-57
2021/01/24 05:36:59;;;;;;;0.70;0.40;;;2.10;99.90;;;;;;5074855;28;20426;-56
2021/01/24 05:39:30;;;;;;;1.48;0.47;;;2.20;99.90;;;;;;5074555;28;20433;-56
2021/01/24 05:41:57;;;;;;;0.50;0.40;;;2.30;99.90;;;;;;5074312;28;20530;-55
2021/01/24 05:44:25;;;;;;;1.40;0.40;;;2.20;99.90;;;;;;5074600;28;20431;-55
2021/01/24 05:46:54;;;;;;;0.77;0.40;;;2.30;99.90;;;;;;5074191;28;20517;-57
2021/01/24 05:49:23;;;;;;;1.30;0.40;;;2.30;99.90;;;;;;5073841;28;20881;-56
2021/01/24 05:52:00;;;;;;;1.70;0.40;;;2.30;99.90;;;;;;5074621;28;20830;-56
2021/01/24 05:54:39;;;;;;;1.37;0.40;;;2.20;99.90;;;;;;5074538;28;20423;-56
2021/01/24 05:57:05;;;;;;;1.20;0.40;;;2.10;99.90;;;;;;5074468;28;20424;-55
2021/01/24 05:59:48;;;;;;;1.30;0.40;;;2.10;99.90;;;;;;5074497;28;20727;-56
2021/01/24 06:02:15;;;;;;;0.80;0.50;;;1.90;99.90;;;;;;5074401;28;20423;-56
2021/01/24 06:04:42;;;;;;;0.60;0.32;;;2.00;99.90;;;;;;5074165;28;20772;-56
2021/01/24 06:07:08;;;;;;;0.60;0.30;;;2.10;99.90;;;;;;5073549;28;20719;-57
2021/01/24 06:09:35;;;;;;;1.10;0.50;;;2.00;99.90;;;;;;5074206;28;20760;-57
2021/01/24 06:12:04;;;;;;;0.70;0.40;;;1.90;99.90;;;;;;5074343;28;20418;-57
2021/01/24 06:14:34;;;;;;;0.80;0.50;;;1.90;99.90;;;;;;5073934;28;20769;-56
2021/01/24 06:17:04;;;;;;;0.80;0.50;;;1.80;99.90;;;;;;5073843;28;20735;-57
2021/01/24 06:19:39;;;;;;;0.60;0.40;;;1.70;99.90;;;;;;5073014;28;20434;-57
2021/01/24 06:22:10;;;;;;;0.90;0.40;;;1.60;99.90;;;;;;5073512;28;20438;-56
2021/01/24 06:24:41;;;;;;;1.00;0.40;;;1.60;99.90;;;;;;5073423;28;20909;-55
2021/01/24 06:27:10;;;;;;;0.90;0.50;;;1.60;99.90;;;;;;5072157;28;20518;-56
2021/01/24 06:29:40;;;;;;;0.90;0.47;;;1.70;99.90;;;;;;5073523;28;20707;-54
2021/01/24 06:32:07;;;;;;;1.20;0.50;;;1.80;99.90;;;;;;5073181;28;20546;-55
2021/01/24 06:34:35;;;;;;;0.70;0.40;;;1.80;99.90;;;;;;5073965;28;20427;-56
2021/01/24 06:37:06;;;;;;;1.20;0.50;;;1.70;99.90;;;;;;5072558;28;20450;-56
2021/01/24 06:39:33;;;;;;;0.80;0.50;;;1.70;99.90;;;;;;5072456;28;20427;-57
2021/01/24 06:41:59;;;;;;;1.80;0.50;;;2.00;99.90;;;;;;5073108;28;20419;-57
2021/01/24 06:44:38;;;;;;;0.80;0.50;;;2.00;99.90;;;;;;5072501;28;20521;-57
2021/01/24 06:47:05;;;;;;;0.90;0.50;;;2.00;99.90;;;;;;5074548;28;20433;-57
2021/01/24 06:49:39;;;;;;;0.80;0.50;;;1.90;99.90;;;;;;5076036;28;20422;-57
2021/01/24 06:52:17;;;;;;;1.10;0.50;;;1.80;99.90;;;;;;5075431;28;20729;-56
2021/01/24 06:54:43;;;;;;;1.20;0.50;;;1.80;99.90;;;;;;5075827;28;20477;-54
2021/01/24 06:57:10;;;;;;;0.70;0.40;;;1.90;99.90;;;;;;5076543;28;20422;-55
2021/01/24 06:59:37;;;;;;;0.63;0.40;;;1.90;99.90;;;;;;5075587;28;20427;-57
2021/01/24 07:02:36;;;;;;;0.60;0.38;;;1.90;99.90;;;;;;5076182;28;20415;-55
2021/01/24 07:05:07;;;;;;;1.13;0.50;;;1.90;99.90;;;;;;5014677;28;20436;-56
2021/01/24 07:07:35;;;;;;;0.80;0.50;;;2.00;99.90;;;;;;5063981;28;20926;-57
2021/01/24 07:10:04;;;;;;;1.70;0.40;;;1.90;99.90;;;;;;5077163;28;20433;-55
2021/01/24 07:12:35;;;;;;;0.80;0.40;;;2.00;99.90;;;;;;5076816;28;20419;-57
2021/01/24 07:15:03;;;;;;;1.92;0.30;;;2.10;99.90;;;;;;5076957;28;20778;-56
2021/01/24 07:17:30;;;;;;;0.85;0.40;;;2.00;99.90;;;;;;5076985;28;20514;-56
2021/01/24 07:19:56;;;;;;;0.90;0.40;;;1.90;99.90;;;;;;5075749;28;20463;-54
2021/01/24 07:22:24;;;;;;;1.00;0.50;;;1.80;99.90;;;;;;5075380;28;20827;-56
2021/01/24 07:24:51;;;;;;;0.80;0.40;;;1.80;99.90;;;;;;5075526;28;20516;-55
2021/01/24 07:27:19;;;;;;;0.90;0.50;;;1.80;99.90;;;;;;5074901;28;20429;-57
2021/01/24 07:29:46;;;;;;;0.70;0.40;;;1.80;99.90;;;;;;5074668;28;20606;-55
2021/01/24 07:32:14;;;;;;;0.70;0.30;;;1.80;99.90;;;;;;5075385;28;20424;-54
2021/01/24 07:34:42;;;;;;;1.20;0.50;;;1.80;99.90;;;;;;5075214;28;20480;-57
2021/01/24 07:37:09;;;;;;;1.00;0.40;;;1.90;99.90;;;;;;5075676;28;20416;-56
2021/01/24 07:39:35;;;;;;;1.10;0.40;;;2.00;99.90;;;;;;5075461;28;20522;-55
2021/01/24 07:42:03;;;;;;;1.00;0.40;;;2.00;99.90;;;;;;5074739;28;20639;-56
2021/01/24 07:44:29;;;;;;;1.70;0.50;;;1.90;99.90;;;;;;5073447;28;20424;-57
2021/01/24 07:46:55;;;;;;;0.70;0.40;;;1.90;99.90;;;;;;5074490;28;20743;-57
2021/01/24 07:49:23;;;;;;;0.90;0.40;;;1.80;99.90;;;;;;5074922;28;20427;-56
2021/01/24 07:51:50;;;;;;;0.70;0.40;;;1.90;99.90;;;;;;5074439;28;20420;-53
2021/01/24 07:54:17;;;;;;;0.73;0.40;;;1.80;99.90;;;;;;5074136;28;20432;-50
2021/01/24 07:56:43;;;;;;;0.60;0.30;;;1.80;99.90;;;;;;5074678;28;20426;-57
2021/01/24 07:59:10;;;;;;;1.00;0.40;;;2.00;99.90;;;;;;5074184;28;20430;-58
2021/01/24 08:01:37;;;;;;;0.60;0.30;;;2.10;99.90;;;;;;5073772;28;20420;-57
2021/01/24 08:04:04;;;;;;;0.70;0.40;;;2.00;99.90;;;;;;5074754;28;20554;-55
2021/01/24 08:06:33;;;;;;;1.80;0.38;;;1.90;99.90;;;;;;5073874;28;20446;-55
2021/01/24 08:09:00;;;;;;;0.70;0.40;;;2.00;99.90;;;;;;5073238;28;20422;-57
2021/01/24 08:11:27;;;;;;;1.10;0.30;;;2.00;99.90;;;;;;5072133;28;20467;-57
2021/01/24 08:13:54;;;;;;;1.00;0.40;;;2.00;99.90;;;;;;5066590;28;20499;-58
2021/01/24 08:16:23;;;;;;;0.50;0.30;;;2.00;99.90;;;;;;5072540;28;20463;-56
2021/01/24 08:18:52;;;;;;;2.00;0.40;;;1.90;99.90;;;;;;5068096;28;20601;-58
2021/01/24 08:21:19;;;;;;;0.70;0.40;;;1.90;99.90;;;;;;5057788;28;20460;-58
2021/01/24 08:23:47;;;;;;;0.70;0.30;;;2.00;99.90;;;;;;5081974;28;20956;-57
2021/01/24 08:26:14;;;;;;;0.70;0.40;;;2.10;99.90;;;;;;5066407;28;20435;-57
2021/01/24 08:28:42;;;;;;;0.60;0.30;;;2.20;99.90;;;;;;5063444;28;20432;-56
2021/01/24 08:31:09;;;;;;;0.60;0.30;;;2.10;99.90;;;;;;5064143;28;20438;-57
2021/01/24 08:33:36;;;;;;;0.75;0.38;;;2.20;99.90;;;;;;5073154;28;20451;-55
2021/01/24 08:36:14;;;;;;;0.60;0.30;;;2.30;99.90;;;;;;5074023;28;20893;-57
2021/01/24 08:38:41;;;;;;;0.60;0.40;;;2.40;99.90;;;;;;5058378;28;20423;-53
2021/01/24 08:41:08;;;;;;;0.70;0.40;;;2.30;99.90;;;;;;5073112;28;20456;-55
2021/01/24 08:43:35;;;;;;;0.80;0.40;;;2.50;99.90;;;;;;5069067;28;20427;-57
2021/01/24 08:46:21;;;;;;;0.68;0.40;;;2.40;99.90;;;;;;5072522;28;20609;-57
2021/01/24 08:49:02;;;;;;;0.70;0.30;;;2.50;99.90;;;;;;5066250;28;20427;-53
2021/01/24 08:51:49;;;;;;;0.60;0.30;;;2.60;99.90;;;;;;5074090;28;20430;-56
2021/01/24 08:54:24;;;;;;;0.80;0.40;;;3.00;99.90;;;;;;5071911;28;20780;-55
2021/01/24 08:56:52;;;;;;;0.60;0.40;;;3.10;99.90;;;;;;5064458;28;20504;-57
2021/01/24 08:59:23;;;;;;;1.00;0.40;;;3.30;99.90;;;;;;5071946;28;20454;-55
2021/01/24 09:01:51;;;;;;;0.80;0.30;;;3.20;99.90;;;;;;5066802;28;20452;-57
2021/01/24 09:04:19;;;;;;;0.60;0.40;;;3.10;99.90;;;;;;5063753;28;20817;-55
2021/01/24 09:06:59;;;;;;;0.50;0.30;;;3.20;99.90;;;;;;5073458;28;20918;-57
2021/01/24 09:09:27;;;;;;;1.10;0.30;;;3.00;99.90;;;;;;5072339;28;20870;-56
2021/01/24 09:11:54;;;;;;;0.88;0.40;;;2.90;99.90;;;;;;5067046;28;20799;-55
2021/01/24 09:14:20;;;;;;;0.55;0.35;;;2.50;99.90;;;;;;5054827;28;20527;-58
2021/01/24 09:16:57;;;;;;;0.60;0.30;;;2.60;99.90;;;;;;5063547;28;20422;-55
2021/01/24 09:19:23;;;;;;;0.60;0.40;;;2.60;99.90;;;;;;5075436;28;20839;-54
2021/01/24 09:21:49;;;;;;;0.68;0.40;;;2.70;99.90;;;;;;5067446;28;20425;-56
2021/01/24 09:24:16;;;;;;;0.73;0.40;;;2.70;99.90;;;;;;5062699;28;20459;-55
2021/01/24 09:26:42;;;;;;;1.40;0.40;;;2.80;99.90;;;;;;5054569;28;20456;-54
2021/01/24 09:29:09;;;;;;;0.70;0.40;;;3.00;99.90;;;;;;5076334;28;20431;-54
2021/01/24 09:31:35;;;;;;;0.80;0.40;;;3.00;99.90;;;;;;5057206;28;20449;-57
2021/01/24 09:34:02;;;;;;;1.10;0.40;;;3.00;99.90;;;;;;5053730;28;20421;-57
2021/01/24 09:36:28;;;;;;;0.70;0.40;;;2.80;99.90;;;;;;5053558;28;20460;-57
2021/01/24 09:38:54;;;;;;;0.70;0.40;;;2.70;99.90;;;;;;5053062;28;20425;-57
2021/01/24 09:41:21;;;;;;;0.80;0.47;;;2.70;99.90;;;;;;5070327;28;20441;-58
2021/01/24 09:43:47;;;;;;;0.85;0.40;;;2.90;99.90;;;;;;5060102;28;20455;-58
2021/01/24 09:46:14;;;;;;;1.50;0.40;;;2.90;99.90;;;;;;5066927;28;20730;-57
2021/01/24 09:48:40;;;;;;;1.50;0.50;;;2.50;99.90;;;;;;5064993;28;20430;-58
2021/01/24 09:51:08;;;;;;;0.70;0.43;;;2.40;99.90;;;;;;5053683;28;20736;-57
2021/01/24 09:53:36;;;;;;;0.88;0.50;;;2.40;99.90;;;;;;5058206;28;20440;-58
2021/01/24 09:56:04;;;;;;;0.90;0.50;;;2.50;99.90;;;;;;5061293;28;20437;-55
2021/01/24 09:58:30;;;;;;;0.75;0.40;;;2.40;99.90;;;;;;5053305;28;20442;-57
2021/01/24 10:00:56;;;;;;;0.70;0.40;;;2.30;99.90;;;;;;5052559;28;20844;-58
2021/01/24 10:03:23;;;;;;;0.60;0.40;;;2.60;99.90;;;;;;5060623;28;20431;-57
2021/01/24 10:05:50;;;;;;;1.40;0.50;;;2.80;99.90;;;;;;5067004;28;20499;-57
2021/01/24 10:08:17;;;;;;;0.80;0.50;;;2.80;99.90;;;;;;5073505;28;20433;-56
2021/01/24 10:10:45;;;;;;;0.90;0.50;;;2.90;99.90;;;;;;5066634;28;20437;-57
2021/01/24 10:13:12;;;;;;;0.70;0.40;;;3.10;99.90;;;;;;5067094;28;20923;-57
2021/01/24 10:15:38;;;;;;;0.85;0.40;;;2.90;99.90;;;;;;5071352;28;20591;-57
2021/01/24 10:18:05;;;;;;;2.30;0.45;;;2.90;99.90;;;;;;5065459;28;20423;-57
2021/01/24 10:20:32;;;;;;;0.90;0.50;;;3.00;99.90;;;;;;5071582;28;20438;-58
2021/01/24 10:22:58;;;;;;;0.90;0.43;;;3.30;99.90;;;;;;5072613;28;20425;-56
2021/01/24 10:25:25;;;;;;;0.80;0.40;;;3.40;99.90;;;;;;5056675;28;20527;-57
2021/01/24 10:27:51;;;;;;;1.10;0.40;;;3.50;99.90;;;;;;5056943;28;20432;-56
2021/01/24 10:30:19;;;;;;;1.23;0.40;;;3.60;99.90;;;;;;5057396;28;20560;-54
2021/01/24 10:32:45;;;;;;;0.70;0.40;;;3.60;99.90;;;;;;5084586;28;20421;-56
2021/01/24 10:35:12;;;;;;;0.60;0.40;;;3.70;99.90;;;;;;5066306;28;20436;-57
2021/01/24 10:37:39;;;;;;;0.80;0.40;;;3.70;99.90;;;;;;5059304;28;20512;-57
2021/01/24 10:40:06;;;;;;;0.88;0.30;;;3.40;99.90;;;;;;5070427;28;20916;-56
2021/01/24 10:42:33;;;;;;;0.90;0.30;;;3.50;99.90;;;;;;5072660;28;20457;-57
2021/01/24 10:44:59;;;;;;;0.90;0.40;;;3.30;99.90;;;;;;5076438;28;20906;-57
2021/01/24 10:47:26;;;;;;;0.50;0.40;;;3.40;99.90;;;;;;5069445;28;20498;-58
2021/01/24 10:49:52;;;;;;;0.60;0.30;;;3.50;99.90;;;;;;5056971;28;20457;-57
2021/01/24 10:52:18;;;;;;;0.60;0.40;;;3.60;99.90;;;;;;5067760;28;20744;-57
2021/01/24 10:54:45;;;;;;;0.60;0.30;;;3.60;99.90;;;;;;5093620;28;20429;-58
2021/01/24 10:57:12;;;;;;;0.50;0.30;;;3.80;99.90;;;;;;5054280;28;20890;-56
2021/01/24 10:59:38;;;;;;;1.40;0.30;;;3.90;99.90;;;;;;5059400;28;20431;-57
2021/01/24 11:02:04;;;;;;;0.50;0.30;;;4.10;99.90;;;;;;5056556;28;20486;-57
2021/01/24 11:04:32;;;;;;;0.50;0.25;;;4.10;99.90;;;;;;5081668;28;20469;-58
2021/01/24 11:06:58;;;;;;;0.60;0.30;;;4.10;99.90;;;;;;5058759;28;20438;-58
2021/01/24 11:09:24;;;;;;;0.50;0.30;;;4.20;99.90;;;;;;5062302;28;20532;-56
2021/01/24 11:11:51;;;;;;;0.50;0.30;;;4.20;99.90;;;;;;5070822;28;20424;-58
2021/01/24 11:14:18;;;;;;;0.60;0.30;;;4.10;99.90;;;;;;5085044;28;20453;-58
2021/01/24 11:16:44;;;;;;;0.90;0.30;;;4.10;99.90;;;;;;5074159;28;20725;-58
2021/01/24 11:19:11;;;;;;;0.40;0.30;;;4.00;99.90;;;;;;5061031;28;20433;-57
2021/01/24 11:21:37;;;;;;;0.50;0.30;;;4.00;99.90;;;;;;5052241;28;20429;-57
2021/01/24 11:24:04;;;;;;;0.80;0.30;;;4.10;99.90;;;;;;5059018;28;20428;-56
2021/01/24 11:26:30;;;;;;;0.40;0.20;;;4.20;99.90;;;;;;5052982;28;20443;-58
2021/01/24 11:28:57;;;;;;;0.50;0.30;;;4.10;99.90;;;;;;5070712;28;20437;-58
2021/01/24 11:31:24;;;;;;;0.90;0.30;;;4.00;99.90;;;;;;5055026;28;21162;-58
2021/01/24 11:33:50;;;;;;;0.60;0.30;;;4.10;99.90;;;;;;5054665;28;20543;-58
2021/01/24 11:36:17;;;;;;;0.40;0.20;;;4.10;99.90;;;;;;5056152;28;20555;-59
2021/01/24 11:38:44;;;;;;;0.60;0.30;;;4.40;99.90;;;;;;5067566;28;20490;-58
2021/01/24 11:41:10;;;;;;;0.60;0.38;;;4.40;99.90;;;;;;5064773;28;20431;-59
2021/01/24 11:43:37;;;;;;;0.60;0.30;;;4.50;99.90;;;;;;5054629;28;20432;-57
2021/01/24 11:46:04;;;;;;;0.60;0.30;;;4.70;99.90;;;;;;5068635;28;20466;-58
2021/01/24 11:48:31;;;;;;;0.70;0.30;;;4.50;99.90;;;;;;5089823;28;20432;-58
2021/01/24 11:50:57;;;;;;;0.82;0.30;;;4.50;99.90;;;;;;5088368;28;20495;-59
2021/01/24 11:53:23;;;;;;;0.50;0.30;;;4.60;99.90;;;;;;5065844;28;20915;-59
2021/01/24 11:55:52;;;;;;;0.40;0.30;;;4.70;99.90;;;;;;5077751;28;20430;-59
2021/01/24 11:58:18;;;;;;;0.50;0.30;;;4.80;99.90;;;;;;5057942;28;20436;-59
2021/01/24 12:00:45;;;;;;;0.70;0.30;;;4.70;99.90;;;;;;5062616;28;20425;-59
2021/01/24 12:03:12;;;;;;;0.50;0.30;;;4.60;99.90;;;;;;5072997;28;20544;-60
2021/01/24 12:06:12;;;;;;;0.70;0.20;;;4.80;99.90;;;;;;5065949;28;20510;-57
2021/01/24 12:08:38;;;;;;;0.80;0.30;;;4.40;99.90;;;;;;5073182;28;20430;-58
2021/01/24 12:11:05;;;;;;;0.50;0.30;;;4.20;99.90;;;;;;5067497;28;20841;-58
2021/01/24 12:13:31;;;;;;;1.10;0.30;;;4.00;99.90;;;;;;5063161;28;20428;-58
2021/01/24 12:15:58;;;;;;;1.00;0.30;;;4.10;99.90;;;;;;5082885;28;20448;-58
2021/01/24 12:18:25;;;;;;;0.50;0.20;;;4.20;99.90;;;;;;5070782;28;20423;-57
2021/01/24 12:20:52;;;;;;;1.30;0.30;;;4.20;99.90;;;;;;5061031;28;20730;-59
2021/01/24 12:23:20;;;;;;;0.50;0.30;;;4.40;99.90;;;;;;5060945;28;20714;-56
2021/01/24 12:25:47;;;;;;;0.67;0.30;;;4.20;99.90;;;;;;5063023;28;20817;-58
2021/01/24 12:28:13;;;;;;;0.70;0.35;;;4.00;99.90;;;;;;5064472;28;20520;-58
2021/01/24 12:30:39;;;;;;;0.50;0.30;;;4.20;99.90;;;;;;5063770;28;20781;-58
2021/01/24 12:33:10;;;;;;;0.50;0.30;;;4.20;99.90;;;;;;5068334;28;20477;-58
2021/01/24 12:35:38;;;;;;;0.70;0.30;;;4.20;99.90;;;;;;5066704;28;20486;-58
2021/01/24 12:38:05;;;;;;;0.90;0.30;;;4.10;99.90;;;;;;5082328;28;20807;-59
2021/01/24 12:40:31;;;;;;;0.70;0.40;;;4.10;99.90;;;;;;5066707;28;20837;-59
2021/01/24 12:42:57;;;;;;;0.50;0.30;;;3.90;99.90;;;;;;5069737;28;20455;-58
2021/01/24 12:45:24;;;;;;;0.60;0.30;;;3.80;99.90;;;;;;5057009;28;20483;-59
2021/01/24 12:47:50;;;;;;;0.68;0.40;;;3.80;99.90;;;;;;5060835;28;20880;-59
2021/01/24 12:50:18;;;;;;;0.50;0.30;;;3.80;99.90;;;;;;5077230;28;20440;-58
2021/01/24 12:52:46;;;;;;;1.10;0.30;;;3.80;99.90;;;;;;5062585;28;20428;-58
2021/01/24 12:55:13;;;;;;;1.30;0.30;;;3.80;99.90;;;;;;5052654;28;20429;-58
2021/01/24 12:57:39;;;;;;;0.60;0.30;;;3.80;99.90;;;;;;5058616;28;20841;-58
2021/01/24 13:00:07;;;;;;;0.60;0.30;;;3.80;99.90;;;;;;5073575;28;20525;-58